createdAt,value
2022-09-23T00:02:02.184Z,1.20
2022-09-23T00:04:32.034Z,1.37
2022-09-23T00:07:00.002Z,1.35
2022-09-23T00:09:30.096Z,1.27
2022-09-23T00:12:00.066Z,1.40
2022-09-23T00:14:28.269Z,1.20
2022-09-23T00:16:59.770Z,1.17
2022-09-23T00:19:29.666Z,1.37
2022-09-23T00:21:57.613Z,1.27
2022-09-23T00:24:34.490Z,1.27
2022-09-23T00:27:04.726Z,1.20
2022-09-23T00:29:32.894Z,1.63
2022-09-23T00:32:04.495Z,1.17
2022-09-23T00:34:34.728Z,1.53
2022-09-23T00:37:02.602Z,1.40
2022-09-23T00:39:32.750Z,1.37
2022-09-23T00:42:04.628Z,1.30
2022-09-23T00:44:51.849Z,1.07
2022-09-23T00:47:26.128Z,1.50
2022-09-23T00:50:03.847Z,1.30
2022-09-23T00:52:34.625Z,1.43
2022-09-23T00:55:08.497Z,1.10
2022-09-23T00:57:41.382Z,1.60
2022-09-23T01:00:12.957Z,1.30
2022-09-23T01:02:42.514Z,1.37
2022-09-23T01:05:11.018Z,1.40
2022-09-23T01:07:40.613Z,1.10
2022-09-23T01:10:13.516Z,1.25
2022-09-23T01:13:11.221Z,1.17
2022-09-23T01:15:47.138Z,1.37
2022-09-23T01:18:28.421Z,1.33
2022-09-23T01:21:16.722Z,1.60
2022-09-23T01:24:19.796Z,1.53
2022-09-23T01:27:00.279Z,1.30
2022-09-23T01:32:31.296Z,1.30
2022-09-23T01:35:13.736Z,1.50
2022-09-23T01:37:51.169Z,1.60
2022-09-23T01:40:26.737Z,1.40
2022-09-23T01:42:59.253Z,1.50
2022-09-23T01:45:34.729Z,1.60
2022-09-23T01:48:19.007Z,1.73
2022-09-23T01:50:59.656Z,1.73
2022-09-23T01:56:12.066Z,1.40
2022-09-23T01:58:46.353Z,1.60
2022-09-23T02:01:20.507Z,1.90
2022-09-23T02:03:56.410Z,1.40
2022-09-23T02:06:29.759Z,1.67
2022-09-23T02:09:03.111Z,1.50
2022-09-23T02:11:37.320Z,1.43
2022-09-23T02:14:14.844Z,1.57
2022-09-23T02:16:49.717Z,1.60
2022-09-23T02:19:27.165Z,1.70
2022-09-23T02:22:02.482Z,1.90
2022-09-23T02:24:34.733Z,1.70
2022-09-23T02:27:15.684Z,1.67
2022-09-23T02:29:52.730Z,1.33
2022-09-23T02:32:24.940Z,1.63
2022-09-23T02:35:02.796Z,1.47
2022-09-23T02:37:41.114Z,1.53
2022-09-23T02:40:15.826Z,1.60
2022-09-23T02:42:52.650Z,1.70
2022-09-23T02:45:22.715Z,1.47
2022-09-23T02:47:59.902Z,1.70
2022-09-23T02:50:32.068Z,1.80
2022-09-23T02:53:02.991Z,1.87
2022-09-23T02:55:33.497Z,1.53
2022-09-23T03:00:42.770Z,1.60
2022-09-23T03:03:27.976Z,1.80
2022-09-23T03:06:05.889Z,1.80
2022-09-23T03:08:44.735Z,1.90
2022-09-23T03:11:17.036Z,2.07
2022-09-23T03:14:05.205Z,1.80
2022-09-23T03:16:43.991Z,2.00
2022-09-23T03:19:24.517Z,1.90
2022-09-23T03:22:04.767Z,2.20
2022-09-23T03:24:35.665Z,2.03
2022-09-23T03:27:13.612Z,2.07
2022-09-23T03:29:45.603Z,2.20
2022-09-23T03:32:19.922Z,1.80
2022-09-23T03:34:50.433Z,1.90
2022-09-23T03:39:55.782Z,2.23
2022-09-23T03:42:29.002Z,1.90
2022-09-23T03:44:58.461Z,2.03
2022-09-23T03:47:31.180Z,2.23
2022-09-23T03:49:59.137Z,2.10
2022-09-23T03:52:29.031Z,1.83
2022-09-23T03:55:00.822Z,2.20
2022-09-23T03:57:28.821Z,2.17
2022-09-23T03:59:56.653Z,2.30
2022-09-23T04:02:28.735Z,2.47
2022-09-23T04:04:57.288Z,2.30
2022-09-23T04:07:25.586Z,2.17
2022-09-23T04:09:57.780Z,2.47
2022-09-23T04:12:25.770Z,2.33
2022-09-23T04:14:53.645Z,2.23
2022-09-23T04:17:25.868Z,2.63
2022-09-23T04:19:53.840Z,2.47
2022-09-23T04:22:22.523Z,2.50
2022-09-23T04:24:54.231Z,2.50
2022-09-23T04:27:23.424Z,2.50
2022-09-23T04:29:51.672Z,2.77
2022-09-23T04:32:23.756Z,2.87
2022-09-23T04:34:51.600Z,3.13
2022-09-23T04:37:19.454Z,2.63
2022-09-23T04:39:51.189Z,2.93
2022-09-23T04:42:19.053Z,4.10
2022-09-23T04:44:48.288Z,3.70
2022-09-23T04:47:21.084Z,4.03
2022-09-23T04:49:48.938Z,3.30
2022-09-23T04:52:16.803Z,3.67
2022-09-23T04:54:48.611Z,4.23
2022-09-23T04:57:16.412Z,4.50
2022-09-23T04:59:45.313Z,4.10
2022-09-23T05:02:18.210Z,3.73
2022-09-23T05:04:46.093Z,4.00
2022-09-23T05:07:14.101Z,4.20
2022-09-23T05:09:46.006Z,4.17
2022-09-23T05:12:13.896Z,4.20
2022-09-23T05:14:41.705Z,4.10
2022-09-23T05:17:13.707Z,4.17
2022-09-23T05:19:42.900Z,4.10
2022-09-23T05:22:10.688Z,3.90
2022-09-23T05:24:42.703Z,3.70
2022-09-23T05:27:10.468Z,3.67
2022-09-23T05:29:38.615Z,3.40
2022-09-23T05:32:06.701Z,3.60
2022-09-23T05:34:36.727Z,3.00
2022-09-23T05:37:06.229Z,2.75
2022-09-23T05:39:35.986Z,3.07
2022-09-23T05:42:06.370Z,3.28
2022-09-23T05:44:34.197Z,3.22
2022-09-23T05:47:04.609Z,2.73
2022-09-23T05:52:27.405Z,2.60
2022-09-23T05:54:57.563Z,3.23
2022-09-23T05:57:25.594Z,2.70
2022-09-23T05:59:53.421Z,1.87
2022-09-23T06:02:23.532Z,2.30
2022-09-23T06:04:51.526Z,2.28
2022-09-23T06:07:19.773Z,1.90
2022-09-23T06:09:50.942Z,2.10
2022-09-23T06:12:22.113Z,2.27
2022-09-23T06:14:50.744Z,1.90
2022-09-23T06:17:20.426Z,1.70
2022-09-23T06:19:50.427Z,1.70
2022-09-23T06:22:18.741Z,1.85
2022-09-23T06:24:49.861Z,1.70
2022-09-23T06:27:19.832Z,1.67
2022-09-23T06:29:47.679Z,1.63
2022-09-23T06:32:18.168Z,1.87
2022-09-23T06:37:21.867Z,1.67
2022-09-23T06:39:54.857Z,1.48
2022-09-23T06:42:24.607Z,1.80
2022-09-23T06:44:54.605Z,1.80
2022-09-23T06:47:22.476Z,1.77
2022-09-23T06:49:53.869Z,1.70
2022-09-23T06:52:23.946Z,1.77
2022-09-23T06:54:53.346Z,1.90
2022-09-23T06:57:21.232Z,1.40
2022-09-23T06:59:52.118Z,1.63
2022-09-23T07:02:20.209Z,1.90
2022-09-23T07:04:48.199Z,1.30
2022-09-23T07:07:16.458Z,1.70
2022-09-23T07:09:44.442Z,1.73
2022-09-23T07:12:14.155Z,1.70
2022-09-23T07:14:42.189Z,1.50
2022-09-23T07:17:10.098Z,1.60
2022-09-23T07:19:38.333Z,1.40
2022-09-23T07:22:06.771Z,1.60
2022-09-23T07:24:35.101Z,1.43
2022-09-23T07:27:03.459Z,2.00
2022-09-23T07:29:45.691Z,2.00
2022-09-23T07:32:16.787Z,1.40
2022-09-23T07:34:47.195Z,1.40
2022-09-23T07:37:15.151Z,1.70
2022-09-23T07:39:45.664Z,1.57
2022-09-23T07:44:47.954Z,1.37
2022-09-23T07:47:15.900Z,1.60
2022-09-23T07:49:46.883Z,1.80
2022-09-23T07:52:14.833Z,1.87
2022-09-23T07:54:43.165Z,1.83
2022-09-23T07:57:14.605Z,1.80
2022-09-23T07:59:44.546Z,1.77
2022-09-23T08:02:16.469Z,2.00
2022-09-23T08:04:44.330Z,1.50
2022-09-23T08:07:14.986Z,1.60
2022-09-23T08:09:44.802Z,1.93
2022-09-23T08:12:18.913Z,1.45
2022-09-23T08:14:48.400Z,1.70
2022-09-23T08:17:18.478Z,1.70
2022-09-23T08:19:51.178Z,1.67
2022-09-23T08:22:19.880Z,1.63
2022-09-23T08:24:48.295Z,1.70
2022-09-23T08:27:18.215Z,1.43
2022-09-23T08:29:49.618Z,1.58
2022-09-23T08:32:17.423Z,1.60
2022-09-23T08:34:47.494Z,2.03
2022-09-23T08:37:17.442Z,1.98
2022-09-23T08:39:45.260Z,1.45
2022-09-23T08:42:26.391Z,1.70
2022-09-23T08:44:58.865Z,1.70
2022-09-23T08:47:46.734Z,1.40
2022-09-23T08:50:19.195Z,1.42
2022-09-23T08:52:54.278Z,1.50
2022-09-23T08:55:28.577Z,1.50
2022-09-23T08:58:26.448Z,1.27
2022-09-23T09:01:07.922Z,1.30
2022-09-23T09:03:45.988Z,1.25
2022-09-23T09:06:18.980Z,1.30
2022-09-23T09:08:57.762Z,1.40
2022-09-23T09:11:34.153Z,1.30
2022-09-23T09:14:13.015Z,1.45
2022-09-23T09:17:00.044Z,1.58
2022-09-23T09:19:54.105Z,1.58
2022-09-23T09:22:24.984Z,1.40
2022-09-23T09:25:04.792Z,1.42
2022-09-23T09:27:32.696Z,1.45
2022-09-23T09:30:02.969Z,1.13
2022-09-23T09:32:44.125Z,1.33
2022-09-23T09:35:25.152Z,0.95
2022-09-23T09:37:54.793Z,1.17
2022-09-23T09:40:25.554Z,1.95
2022-09-23T09:42:53.497Z,1.50
2022-09-23T09:45:33.501Z,1.30
2022-09-23T09:48:12.017Z,1.35
2022-09-23T09:50:51.053Z,1.15
2022-09-23T09:53:25.572Z,1.33
2022-09-23T09:56:05.317Z,1.58
2022-09-23T09:58:46.044Z,1.67
2022-09-23T10:01:25.201Z,1.40
2022-09-23T10:03:59.707Z,1.30
2022-09-23T10:06:31.617Z,1.17
2022-09-23T10:09:19.338Z,1.50
2022-09-23T10:12:13.962Z,1.45
2022-09-23T10:14:44.578Z,1.30
2022-09-23T10:17:19.035Z,1.17
2022-09-23T10:19:52.445Z,1.15
2022-09-23T10:22:28.365Z,1.02
2022-09-23T10:25:03.300Z,1.50
2022-09-23T10:27:33.666Z,1.30
2022-09-23T10:32:33.690Z,1.17
2022-09-23T10:35:15.770Z,1.42
2022-09-23T10:37:48.343Z,1.20
2022-09-23T10:40:40.653Z,1.30
2022-09-23T10:43:41.479Z,1.27
2022-09-23T10:46:36.321Z,1.05
2022-09-23T10:49:31.095Z,1.20
2022-09-23T10:52:12.976Z,1.40
2022-09-23T10:54:52.989Z,1.25
2022-09-23T10:57:40.726Z,1.10
2022-09-23T11:00:23.551Z,1.23
2022-09-23T11:03:25.412Z,1.45
2022-09-23T11:06:06.559Z,1.00
2022-09-23T11:09:05.935Z,1.10
2022-09-23T11:11:44.926Z,1.50
2022-09-23T11:14:38.868Z,1.20
2022-09-23T11:17:36.170Z,1.20
2022-09-23T11:20:22.050Z,1.30
2022-09-23T11:23:15.550Z,1.45
2022-09-23T11:25:55.684Z,1.33
2022-09-23T11:28:48.670Z,1.13
2022-09-23T11:31:33.042Z,0.98
2022-09-23T11:34:25.304Z,1.20
2022-09-23T11:37:01.019Z,0.73
2022-09-23T11:39:32.203Z,0.93
2022-09-23T11:42:02.973Z,0.90
2022-09-23T11:44:34.622Z,0.80
2022-09-23T11:47:10.740Z,0.60
2022-09-23T11:49:43.384Z,0.70
2022-09-23T11:52:19.612Z,0.90
2022-09-23T11:54:53.113Z,0.70
2022-09-23T11:57:42.709Z,0.70
2022-09-23T12:00:19.122Z,0.80
2022-09-23T12:03:05.458Z,0.70
2022-09-23T12:05:40.358Z,0.85
2022-09-23T12:08:17.451Z,0.70
2022-09-23T12:10:53.330Z,0.80
2022-09-23T12:13:33.649Z,0.85
2022-09-23T12:16:18.334Z,0.85
2022-09-23T12:18:59.202Z,0.65
2022-09-23T12:21:50.172Z,0.73
2022-09-23T12:24:34.482Z,0.77
2022-09-23T12:27:08.434Z,0.80
2022-09-23T12:29:41.723Z,0.60
2022-09-23T12:32:18.409Z,0.95
2022-09-23T12:34:54.271Z,0.88
2022-09-23T12:37:34.021Z,0.80
2022-09-23T12:40:10.735Z,1.00
2022-09-23T12:42:45.875Z,0.60
2022-09-23T12:48:48.728Z,0.60
2022-09-23T12:51:22.266Z,0.73
2022-09-23T12:54:15.399Z,0.90
2022-09-23T12:57:05.282Z,0.60
2022-09-23T12:59:55.776Z,0.47
2022-09-23T13:02:35.166Z,0.70
2022-09-23T13:05:34.824Z,0.70
2022-09-23T13:08:06.662Z,0.77
2022-09-23T13:10:39.973Z,0.80
2022-09-23T13:13:19.159Z,0.70
2022-09-23T13:15:47.718Z,0.85
2022-09-23T13:18:56.805Z,0.80
2022-09-23T13:22:09.773Z,0.80
2022-09-23T13:24:48.660Z,0.70
2022-09-23T13:27:23.604Z,0.77
2022-09-23T13:29:59.852Z,0.90
2022-09-23T13:32:34.347Z,0.70
2022-09-23T13:35:07.092Z,0.82
2022-09-23T13:37:45.037Z,0.60
2022-09-23T13:40:21.652Z,0.80
2022-09-23T13:42:55.432Z,0.80
2022-09-23T13:45:26.981Z,0.80
2022-09-23T13:48:00.912Z,0.70
2022-09-23T13:50:34.701Z,0.70
2022-09-23T13:53:11.045Z,0.60
2022-09-23T13:55:41.629Z,0.80
2022-09-23T13:58:20.476Z,0.60
2022-09-23T14:00:51.508Z,0.73
2022-09-23T14:03:24.856Z,0.90
2022-09-23T14:06:20.623Z,0.80
2022-09-23T14:08:51.612Z,0.50
2022-09-23T14:11:21.262Z,0.68
2022-09-23T14:13:54.827Z,0.47
2022-09-23T14:16:26.983Z,0.55
2022-09-23T14:19:00.464Z,0.55
2022-09-23T14:21:33.975Z,0.60
2022-09-23T14:24:14.695Z,0.82
2022-09-23T14:26:44.508Z,0.63
2022-09-23T14:29:16.825Z,0.73
2022-09-23T14:31:56.915Z,1.42
2022-09-23T14:34:47.863Z,1.05
2022-09-23T14:37:45.926Z,1.00
2022-09-23T14:40:20.046Z,0.90
2022-09-23T14:42:52.109Z,0.98
2022-09-23T14:45:23.004Z,1.00
2022-09-23T14:47:57.833Z,0.90
2022-09-23T14:50:47.426Z,1.13
2022-09-23T14:53:34.406Z,0.85
2022-09-23T14:56:18.214Z,0.95
2022-09-23T14:58:52.610Z,0.93
2022-09-23T15:01:40.506Z,1.00
2022-09-23T15:04:17.934Z,1.40
2022-09-23T15:06:54.831Z,1.10
2022-09-23T15:09:26.076Z,1.17
2022-09-23T15:11:58.645Z,1.25
2022-09-23T15:14:39.133Z,1.30
2022-09-23T15:17:17.729Z,1.50
2022-09-23T15:19:55.176Z,1.50
2022-09-23T15:22:24.090Z,1.52
2022-09-23T15:24:55.323Z,1.20
2022-09-23T15:27:32.419Z,1.48
2022-09-23T15:30:15.539Z,1.00
2022-09-23T15:32:44.322Z,1.05
2022-09-23T15:35:16.490Z,1.30
2022-09-23T15:37:46.170Z,1.30
2022-09-23T15:40:23.808Z,1.50
2022-09-23T15:42:56.222Z,1.20
2022-09-23T15:45:31.321Z,1.38
2022-09-23T15:48:04.123Z,1.35
2022-09-23T15:50:35.073Z,1.65
2022-09-23T15:53:02.891Z,1.67
2022-09-23T15:55:33.616Z,2.83
2022-09-23T15:58:04.944Z,2.58
2022-09-23T16:00:34.226Z,2.70
2022-09-23T16:03:04.048Z,2.90
2022-09-23T16:05:37.797Z,1.92
2022-09-23T16:08:09.425Z,1.98
2022-09-23T16:10:38.479Z,1.70
2022-09-23T16:13:11.694Z,1.70
2022-09-23T16:15:41.915Z,1.60
2022-09-23T16:18:11.429Z,1.40
2022-09-23T16:20:43.826Z,1.50
2022-09-23T16:23:34.278Z,1.33
2022-09-23T16:26:05.644Z,1.52
2022-09-23T16:28:36.899Z,1.80
2022-09-23T16:31:04.989Z,1.67
2022-09-23T16:33:34.723Z,1.90
2022-09-23T16:36:05.277Z,2.08
2022-09-23T16:38:33.182Z,1.90
2022-09-23T16:41:03.182Z,1.80
2022-09-23T16:43:39.543Z,1.70
2022-09-23T16:46:08.214Z,2.00
2022-09-23T16:48:38.139Z,1.83
2022-09-23T16:51:06.389Z,1.83
2022-09-23T16:53:34.731Z,2.20
2022-09-23T16:56:09.401Z,2.27
2022-09-23T16:58:41.552Z,2.00
2022-09-23T17:01:32.069Z,2.60
2022-09-23T17:04:00.139Z,2.10
2022-09-23T17:06:30.425Z,2.53
2022-09-23T17:08:58.221Z,2.30
2022-09-23T17:11:26.124Z,2.83
2022-09-23T17:13:55.452Z,2.40
2022-09-23T17:16:25.474Z,2.60
2022-09-23T17:18:57.564Z,2.90
2022-09-23T17:21:27.091Z,2.60
2022-09-23T17:23:55.120Z,2.53
2022-09-23T17:26:24.047Z,2.60
2022-09-23T17:28:57.342Z,2.90
2022-09-23T17:31:26.443Z,3.90
2022-09-23T17:33:54.592Z,4.00
2022-09-23T17:36:24.573Z,3.10
2022-09-23T17:38:54.428Z,4.20
2022-09-23T17:41:22.567Z,3.47
2022-09-23T17:43:58.625Z,4.17
2022-09-23T17:46:28.922Z,4.30
2022-09-23T17:48:57.092Z,3.90
2022-09-23T17:51:27.671Z,3.87
2022-09-23T17:53:57.596Z,3.93
2022-09-23T17:56:27.044Z,3.70
2022-09-23T17:58:58.148Z,3.73
2022-09-23T18:01:28.428Z,3.50
2022-09-23T18:03:57.490Z,3.45
2022-09-23T18:06:28.849Z,3.73
2022-09-23T18:09:01.250Z,3.40
2022-09-23T18:11:32.903Z,3.33
2022-09-23T18:14:06.191Z,3.30
2022-09-23T18:16:39.330Z,3.20
2022-09-23T18:19:08.833Z,3.10
2022-09-23T18:21:42.696Z,3.10
2022-09-23T18:27:03.601Z,3.50
2022-09-23T18:29:34.566Z,3.57
2022-09-23T18:32:09.953Z,3.67
2022-09-23T18:34:40.268Z,3.40
2022-09-23T18:37:15.737Z,3.67
2022-09-23T18:39:44.691Z,3.50
2022-09-23T18:42:17.438Z,4.00
2022-09-23T18:44:47.915Z,4.43
2022-09-23T18:50:26.221Z,4.85
2022-09-23T18:53:01.174Z,5.23
2022-09-23T18:55:38.992Z,5.00
2022-09-23T18:58:12.915Z,5.87
2022-09-23T19:00:43.495Z,5.90
2022-09-23T19:03:11.500Z,7.77
2022-09-23T19:05:43.878Z,6.97
2022-09-23T19:08:15.259Z,7.30
2022-09-23T19:10:43.774Z,7.30
2022-09-23T19:13:12.879Z,6.93
2022-09-23T19:15:43.111Z,6.80
2022-09-23T19:18:14.337Z,6.50
2022-09-23T19:20:51.592Z,6.53
2022-09-23T19:23:20.849Z,5.97
2022-09-23T19:25:54.328Z,5.93
2022-09-23T19:28:25.425Z,6.27
2022-09-23T19:31:09.908Z,5.50
2022-09-23T19:33:41.818Z,5.43
2022-09-23T19:36:10.922Z,5.60
2022-09-23T19:38:40.782Z,5.80
2022-09-23T19:41:13.635Z,5.18
2022-09-23T19:43:48.157Z,5.53
2022-09-23T19:46:20.608Z,5.63
2022-09-23T19:48:51.817Z,5.10
2022-09-23T19:51:22.753Z,5.97
2022-09-23T19:53:51.224Z,5.90
2022-09-23T19:56:22.092Z,5.90
2022-09-23T19:58:52.491Z,6.60
2022-09-23T20:01:22.545Z,7.47
2022-09-23T20:03:51.750Z,7.57
2022-09-23T20:06:22.509Z,9.00
2022-09-23T20:08:52.785Z,9.63
2022-09-23T20:11:28.405Z,10.02
2022-09-23T20:14:01.221Z,9.43
2022-09-23T20:16:33.029Z,9.97
2022-09-23T20:19:04.109Z,9.17
2022-09-23T20:21:35.639Z,9.97
2022-09-23T20:24:07.034Z,10.90
2022-09-23T20:26:54.216Z,10.87
2022-09-23T20:29:22.209Z,10.23
2022-09-23T20:31:51.552Z,9.53
2022-09-23T20:34:22.733Z,9.40
2022-09-23T20:36:52.929Z,8.30
2022-09-23T20:39:21.268Z,8.52
2022-09-23T20:41:49.849Z,8.73
2022-09-23T20:44:20.015Z,7.30
2022-09-23T20:46:49.036Z,8.32
2022-09-23T20:49:20.802Z,8.67
2022-09-23T20:51:49.283Z,8.17
2022-09-23T20:54:29.340Z,9.43
2022-09-23T20:56:59.144Z,8.48
2022-09-23T20:59:27.440Z,8.55
2022-09-23T21:01:58.268Z,8.50
2022-09-23T21:04:32.217Z,9.27
2022-09-23T21:07:01.098Z,10.40
2022-09-23T21:09:32.163Z,11.63
2022-09-23T21:12:02.123Z,12.63
2022-09-23T21:14:31.411Z,11.15
2022-09-23T21:17:01.325Z,9.90
2022-09-23T21:19:32.100Z,10.40
2022-09-23T21:21:59.952Z,9.93
2022-09-23T21:27:17.922Z,8.05
2022-09-23T21:29:47.881Z,8.60
2022-09-23T21:32:15.666Z,8.68
2022-09-23T21:34:49.318Z,8.67
2022-09-23T21:37:17.618Z,7.93
2022-09-23T21:40:08.023Z,8.00
2022-09-23T21:42:38.176Z,7.47
2022-09-23T21:45:07.158Z,7.38
2022-09-23T21:47:37.153Z,6.73
2022-09-23T21:50:09.717Z,8.38
2022-09-23T21:52:37.504Z,6.90
2022-09-23T21:55:08.077Z,7.63
2022-09-23T21:57:38.311Z,6.87
2022-09-23T22:00:07.429Z,7.22
2022-09-23T22:02:41.942Z,7.87
2022-09-23T22:05:13.448Z,7.23
2022-09-23T22:07:41.243Z,7.70
2022-09-23T22:10:11.069Z,7.60
2022-09-23T22:12:40.923Z,7.30
2022-09-23T22:15:09.874Z,6.70
2022-09-23T22:17:40.287Z,7.03
2022-09-23T22:20:16.070Z,7.18
2022-09-23T22:22:46.009Z,6.93
2022-09-23T22:25:13.935Z,6.50
2022-09-23T22:28:04.262Z,7.10
2022-09-23T22:30:58.226Z,6.80
2022-09-23T22:33:28.335Z,6.50
2022-09-23T22:36:03.816Z,6.95
2022-09-23T22:38:33.131Z,6.27
2022-09-23T22:41:03.266Z,6.20
2022-09-23T22:43:33.447Z,6.40
2022-09-23T22:46:03.353Z,6.00
2022-09-23T22:48:33.439Z,6.13
2022-09-23T22:51:08.769Z,6.30
2022-09-23T22:53:36.671Z,6.37
2022-09-23T22:56:06.686Z,6.60
2022-09-23T22:58:36.549Z,6.32
2022-09-23T23:01:05.511Z,6.75
2022-09-23T23:03:35.574Z,7.47
2022-09-23T23:06:10.316Z,6.60
2022-09-23T23:08:38.834Z,6.23
2022-09-23T23:11:13.150Z,5.80
2022-09-23T23:13:41.961Z,6.00
2022-09-23T23:16:16.064Z,5.60
2022-09-23T23:18:45.526Z,6.23
2022-09-23T23:21:21.824Z,6.53
2022-09-23T23:23:52.071Z,6.40
2022-09-23T23:26:25.975Z,7.10
2022-09-23T23:28:54.695Z,7.43
2022-09-23T23:31:29.271Z,7.07
2022-09-23T23:33:57.206Z,6.80
2022-09-23T23:36:28.328Z,6.93
2022-09-23T23:38:58.149Z,6.53
2022-09-23T23:41:25.964Z,6.55
2022-09-23T23:43:57.926Z,6.83
2022-09-23T23:46:27.730Z,7.27
2022-09-23T23:48:56.850Z,6.57
2022-09-23T23:51:31.943Z,6.67
2022-09-23T23:54:00.728Z,6.63
2022-09-23T23:56:31.769Z,6.70
2022-09-23T23:59:04.532Z,5.97
